sensor_id;sensor_type;location;lat;lon;timestamp;P1;durP1;ratioP1;P2;durP2;ratioP2
30301;SDS011;17111;52.130;5.028;2023-02-21T00:02:31;23.73;;;15.90;;
30301;SDS011;17111;52.130;5.028;2023-02-21T00:05:16;25.10;;;16.15;;
30301;SDS011;17111;52.130;5.028;2023-02-21T00:08:02;25.80;;;16.25;;
30301;SDS011;17111;52.130;5.028;2023-02-21T00:10:47;23.10;;;15.40;;
30301;SDS011;17111;52.130;5.028;2023-02-21T00:13:34;23.95;;;15.63;;
30301;SDS011;17111;52.130;5.028;2023-02-21T00:16:20;25.75;;;14.48;;
30301;SDS011;17111;52.130;5.028;2023-02-21T00:19:06;25.42;;;14.90;;
30301;SDS011;17111;52.130;5.028;2023-02-21T00:21:51;23.83;;;15.25;;
30301;SDS011;17111;52.130;5.028;2023-02-21T00:24:36;21.00;;;14.13;;
30301;SDS011;17111;52.130;5.028;2023-02-21T00:27:23;20.45;;;13.38;;
30301;SDS011;17111;52.130;5.028;2023-02-21T00:30:09;22.25;;;14.38;;
30301;SDS011;17111;52.130;5.028;2023-02-21T00:32:55;23.60;;;14.60;;
30301;SDS011;17111;52.130;5.028;2023-02-21T00:35:40;23.10;;;14.52;;
30301;SDS011;17111;52.130;5.028;2023-02-21T00:38:25;20.90;;;13.52;;
30301;SDS011;17111;52.130;5.028;2023-02-21T00:41:11;21.98;;;13.80;;
30301;SDS011;17111;52.130;5.028;2023-02-21T00:43:56;25.60;;;13.73;;
30301;SDS011;17111;52.130;5.028;2023-02-21T00:46:42;21.75;;;13.23;;
30301;SDS011;17111;52.130;5.028;2023-02-21T00:49:27;21.90;;;13.15;;
30301;SDS011;17111;52.130;5.028;2023-02-21T00:52:13;18.58;;;12.48;;
30301;SDS011;17111;52.130;5.028;2023-02-21T00:54:58;20.77;;;12.40;;
30301;SDS011;17111;52.130;5.028;2023-02-21T00:57:43;21.35;;;12.88;;
30301;SDS011;17111;52.130;5.028;2023-02-21T01:00:29;18.45;;;11.82;;
30301;SDS011;17111;52.130;5.028;2023-02-21T01:03:14;20.73;;;12.20;;
30301;SDS011;17111;52.130;5.028;2023-02-21T01:05:59;18.70;;;12.32;;
30301;SDS011;17111;52.130;5.028;2023-02-21T01:08:45;22.73;;;12.68;;
30301;SDS011;17111;52.130;5.028;2023-02-21T01:11:30;18.10;;;11.75;;
30301;SDS011;17111;52.130;5.028;2023-02-21T01:14:16;18.70;;;11.73;;
30301;SDS011;17111;52.130;5.028;2023-02-21T01:17:01;18.58;;;11.15;;
30301;SDS011;17111;52.130;5.028;2023-02-21T01:19:47;17.35;;;11.18;;
30301;SDS011;17111;52.130;5.028;2023-02-21T01:22:32;20.42;;;11.07;;
30301;SDS011;17111;52.130;5.028;2023-02-21T01:25:17;17.80;;;10.88;;
30301;SDS011;17111;52.130;5.028;2023-02-21T01:28:03;17.80;;;11.10;;
30301;SDS011;17111;52.130;5.028;2023-02-21T01:30:48;17.13;;;11.07;;
30301;SDS011;17111;52.130;5.028;2023-02-21T01:33:37;14.90;;;10.10;;
30301;SDS011;17111;52.130;5.028;2023-02-21T01:36:24;19.60;;;11.02;;
30301;SDS011;17111;52.130;5.028;2023-02-21T01:39:10;17.08;;;11.05;;
30301;SDS011;17111;52.130;5.028;2023-02-21T01:41:55;18.63;;;10.25;;
30301;SDS011;17111;52.130;5.028;2023-02-21T01:44:42;16.95;;;11.05;;
30301;SDS011;17111;52.130;5.028;2023-02-21T01:47:29;14.80;;;9.98;;
30301;SDS011;17111;52.130;5.028;2023-02-21T01:53:12;15.13;;;10.20;;
30301;SDS011;17111;52.130;5.028;2023-02-21T01:56:01;14.55;;;9.77;;
30301;SDS011;17111;52.130;5.028;2023-02-21T01:58:48;16.48;;;9.93;;
30301;SDS011;17111;52.130;5.028;2023-02-21T02:01:38;16.48;;;9.20;;
30301;SDS011;17111;52.130;5.028;2023-02-21T02:04:30;13.93;;;9.48;;
30301;SDS011;17111;52.130;5.028;2023-02-21T02:07:17;14.25;;;9.35;;
30301;SDS011;17111;52.130;5.028;2023-02-21T02:10:03;15.70;;;9.55;;
30301;SDS011;17111;52.130;5.028;2023-02-21T02:21:12;13.43;;;9.27;;
30301;SDS011;17111;52.130;5.028;2023-02-21T02:40:08;14.20;;;8.43;;
30301;SDS011;17111;52.130;5.028;2023-02-21T02:45:50;12.43;;;8.40;;
30301;SDS011;17111;52.130;5.028;2023-02-21T02:48:30;14.60;;;9.27;;
30301;SDS011;17111;52.130;5.028;2023-02-21T02:51:02;11.32;;;8.00;;
30301;SDS011;17111;52.130;5.028;2023-02-21T02:53:33;12.98;;;8.45;;
30301;SDS011;17111;52.130;5.028;2023-02-21T02:56:02;13.50;;;8.07;;
30301;SDS011;17111;52.130;5.028;2023-02-21T02:58:37;12.88;;;8.30;;
30301;SDS011;17111;52.130;5.028;2023-02-21T03:04:06;13.90;;;8.18;;
30301;SDS011;17111;52.130;5.028;2023-02-21T03:15:10;11.82;;;7.63;;
30301;SDS011;17111;52.130;5.028;2023-02-21T03:17:41;11.50;;;7.78;;
30301;SDS011;17111;52.130;5.028;2023-02-21T03:20:11;12.73;;;7.75;;
30301;SDS011;17111;52.130;5.028;2023-02-21T03:22:41;12.10;;;7.70;;
30301;SDS011;17111;52.130;5.028;2023-02-21T03:25:11;14.18;;;8.10;;
30301;SDS011;17111;52.130;5.028;2023-02-21T03:27:40;12.00;;;6.97;;
30301;SDS011;17111;52.130;5.028;2023-02-21T03:30:08;11.88;;;7.40;;
30301;SDS011;17111;52.130;5.028;2023-02-21T03:32:39;11.98;;;7.90;;
30301;SDS011;17111;52.130;5.028;2023-02-21T03:35:12;11.88;;;6.75;;
30301;SDS011;17111;52.130;5.028;2023-02-21T03:37:42;13.60;;;8.02;;
30301;SDS011;17111;52.130;5.028;2023-02-21T03:40:14;11.90;;;7.43;;
30301;SDS011;17111;52.130;5.028;2023-02-21T03:42:49;13.15;;;7.68;;
30301;SDS011;17111;52.130;5.028;2023-02-21T03:45:16;12.05;;;7.97;;
30301;SDS011;17111;52.130;5.028;2023-02-21T03:47:42;12.70;;;7.32;;
30301;SDS011;17111;52.130;5.028;2023-02-21T03:50:09;10.93;;;7.03;;
30301;SDS011;17111;52.130;5.028;2023-02-21T03:52:36;10.98;;;7.20;;
30301;SDS011;17111;52.130;5.028;2023-02-21T03:55:04;11.45;;;7.68;;
30301;SDS011;17111;52.130;5.028;2023-02-21T03:57:31;12.55;;;7.35;;
30301;SDS011;17111;52.130;5.028;2023-02-21T03:59:58;11.18;;;7.20;;
30301;SDS011;17111;52.130;5.028;2023-02-21T04:02:24;10.95;;;7.85;;
30301;SDS011;17111;52.130;5.028;2023-02-21T04:04:51;12.32;;;7.88;;
30301;SDS011;17111;52.130;5.028;2023-02-21T04:07:18;11.75;;;7.65;;
30301;SDS011;17111;52.130;5.028;2023-02-21T04:09:46;16.17;;;7.78;;
30301;SDS011;17111;52.130;5.028;2023-02-21T04:12:14;11.25;;;7.53;;
30301;SDS011;17111;52.130;5.028;2023-02-21T04:14:41;11.13;;;7.05;;
30301;SDS011;17111;52.130;5.028;2023-02-21T04:17:07;9.57;;;6.25;;
30301;SDS011;17111;52.130;5.028;2023-02-21T04:19:34;11.38;;;6.85;;
30301;SDS011;17111;52.130;5.028;2023-02-21T04:22:01;12.07;;;7.32;;
30301;SDS011;17111;52.130;5.028;2023-02-21T04:24:27;11.48;;;7.03;;
30301;SDS011;17111;52.130;5.028;2023-02-21T04:26:54;12.18;;;7.53;;
30301;SDS011;17111;52.130;5.028;2023-02-21T04:29:21;11.73;;;6.97;;
30301;SDS011;17111;52.130;5.028;2023-02-21T04:31:47;11.57;;;6.70;;
30301;SDS011;17111;52.130;5.028;2023-02-21T04:34:14;8.68;;;5.97;;
30301;SDS011;17111;52.130;5.028;2023-02-21T04:36:40;10.23;;;6.85;;
30301;SDS011;17111;52.130;5.028;2023-02-21T04:39:07;11.15;;;6.90;;
30301;SDS011;17111;52.130;5.028;2023-02-21T04:41:34;11.25;;;7.03;;
30301;SDS011;17111;52.130;5.028;2023-02-21T04:44:01;12.63;;;7.65;;
30301;SDS011;17111;52.130;5.028;2023-02-21T04:46:27;12.80;;;7.47;;
30301;SDS011;17111;52.130;5.028;2023-02-21T04:48:54;12.75;;;7.30;;
30301;SDS011;17111;52.130;5.028;2023-02-21T04:51:22;11.35;;;7.30;;
30301;SDS011;17111;52.130;5.028;2023-02-21T04:53:50;9.93;;;6.85;;
30301;SDS011;17111;52.130;5.028;2023-02-21T04:56:18;11.10;;;6.93;;
30301;SDS011;17111;52.130;5.028;2023-02-21T04:58:46;13.25;;;7.05;;
30301;SDS011;17111;52.130;5.028;2023-02-21T05:01:14;11.02;;;7.10;;
30301;SDS011;17111;52.130;5.028;2023-02-21T05:03:42;12.18;;;6.97;;
30301;SDS011;17111;52.130;5.028;2023-02-21T05:06:08;10.25;;;6.97;;
30301;SDS011;17111;52.130;5.028;2023-02-21T05:08:35;11.18;;;7.18;;
30301;SDS011;17111;52.130;5.028;2023-02-21T05:11:02;13.02;;;8.18;;
30301;SDS011;17111;52.130;5.028;2023-02-21T05:13:29;12.18;;;8.43;;
30301;SDS011;17111;52.130;5.028;2023-02-21T05:15:55;14.43;;;8.27;;
30301;SDS011;17111;52.130;5.028;2023-02-21T05:18:22;14.50;;;8.27;;
30301;SDS011;17111;52.130;5.028;2023-02-21T05:20:53;13.68;;;8.00;;
30301;SDS011;17111;52.130;5.028;2023-02-21T05:23:20;14.60;;;8.68;;
30301;SDS011;17111;52.130;5.028;2023-02-21T05:26:07;14.15;;;8.90;;
30301;SDS011;17111;52.130;5.028;2023-02-21T05:28:37;16.40;;;9.60;;
30301;SDS011;17111;52.130;5.028;2023-02-21T05:31:04;13.98;;;10.23;;
30301;SDS011;17111;52.130;5.028;2023-02-21T05:33:32;16.33;;;10.02;;
30301;SDS011;17111;52.130;5.028;2023-02-21T05:35:58;19.52;;;11.45;;
30301;SDS011;17111;52.130;5.028;2023-02-21T05:38:25;21.95;;;12.25;;
30301;SDS011;17111;52.130;5.028;2023-02-21T05:40:52;20.23;;;11.95;;
30301;SDS011;17111;52.130;5.028;2023-02-21T05:43:19;19.48;;;11.55;;
30301;SDS011;17111;52.130;5.028;2023-02-21T05:45:46;20.45;;;12.25;;
30301;SDS011;17111;52.130;5.028;2023-02-21T05:48:13;23.58;;;13.23;;
30301;SDS011;17111;52.130;5.028;2023-02-21T05:50:40;24.75;;;13.25;;
30301;SDS011;17111;52.130;5.028;2023-02-21T05:53:06;21.38;;;13.65;;
30301;SDS011;17111;52.130;5.028;2023-02-21T05:55:35;22.50;;;13.90;;
30301;SDS011;17111;52.130;5.028;2023-02-21T05:58:02;25.55;;;15.07;;
30301;SDS011;17111;52.130;5.028;2023-02-21T06:00:29;22.77;;;13.68;;
30301;SDS011;17111;52.130;5.028;2023-02-21T06:02:56;21.80;;;14.35;;
30301;SDS011;17111;52.130;5.028;2023-02-21T06:05:22;25.02;;;15.60;;
30301;SDS011;17111;52.130;5.028;2023-02-21T06:07:49;27.48;;;15.70;;
30301;SDS011;17111;52.130;5.028;2023-02-21T06:10:16;27.42;;;16.05;;
30301;SDS011;17111;52.130;5.028;2023-02-21T06:12:44;27.27;;;16.17;;
30301;SDS011;17111;52.130;5.028;2023-02-21T06:15:11;27.02;;;16.00;;
30301;SDS011;17111;52.130;5.028;2023-02-21T06:17:38;27.23;;;16.00;;
30301;SDS011;17111;52.130;5.028;2023-02-21T06:20:06;31.33;;;16.45;;
30301;SDS011;17111;52.130;5.028;2023-02-21T06:22:37;25.98;;;15.27;;
30301;SDS011;17111;52.130;5.028;2023-02-21T06:25:04;27.13;;;16.08;;
30301;SDS011;17111;52.130;5.028;2023-02-21T06:27:31;27.35;;;16.20;;
30301;SDS011;17111;52.130;5.028;2023-02-21T06:29:57;26.48;;;15.27;;
30301;SDS011;17111;52.130;5.028;2023-02-21T06:32:24;25.95;;;15.77;;
30301;SDS011;17111;52.130;5.028;2023-02-21T06:34:50;26.65;;;16.15;;
30301;SDS011;17111;52.130;5.028;2023-02-21T06:37:17;24.73;;;15.75;;
30301;SDS011;17111;52.130;5.028;2023-02-21T06:39:45;29.38;;;16.90;;
30301;SDS011;17111;52.130;5.028;2023-02-21T06:42:15;29.95;;;17.25;;
30301;SDS011;17111;52.130;5.028;2023-02-21T06:44:45;28.42;;;16.52;;
30301;SDS011;17111;52.130;5.028;2023-02-21T06:47:13;33.22;;;17.42;;
30301;SDS011;17111;52.130;5.028;2023-02-21T06:49:41;25.95;;;16.70;;
30301;SDS011;17111;52.130;5.028;2023-02-21T06:52:08;26.88;;;15.70;;
30301;SDS011;17111;52.130;5.028;2023-02-21T06:54:35;24.05;;;14.63;;
30301;SDS011;17111;52.130;5.028;2023-02-21T06:57:02;26.63;;;16.50;;
30301;SDS011;17111;52.130;5.028;2023-02-21T06:59:29;28.17;;;16.80;;
30301;SDS011;17111;52.130;5.028;2023-02-21T07:01:55;28.10;;;16.75;;
30301;SDS011;17111;52.130;5.028;2023-02-21T07:04:22;25.70;;;16.05;;
30301;SDS011;17111;52.130;5.028;2023-02-21T07:06:50;26.20;;;16.02;;
30301;SDS011;17111;52.130;5.028;2023-02-21T07:09:17;26.27;;;15.65;;
30301;SDS011;17111;52.130;5.028;2023-02-21T07:11:44;26.92;;;16.27;;
30301;SDS011;17111;52.130;5.028;2023-02-21T07:14:12;24.88;;;15.52;;
30301;SDS011;17111;52.130;5.028;2023-02-21T07:16:39;27.52;;;16.42;;
30301;SDS011;17111;52.130;5.028;2023-02-21T07:19:05;25.70;;;15.80;;
30301;SDS011;17111;52.130;5.028;2023-02-21T07:21:32;29.42;;;16.15;;
30301;SDS011;17111;52.130;5.028;2023-02-21T07:23:59;25.10;;;15.63;;
30301;SDS011;17111;52.130;5.028;2023-02-21T07:26:25;28.10;;;15.55;;
30301;SDS011;17111;52.130;5.028;2023-02-21T07:28:52;25.73;;;15.65;;
30301;SDS011;17111;52.130;5.028;2023-02-21T07:31:19;24.48;;;15.10;;
30301;SDS011;17111;52.130;5.028;2023-02-21T07:33:46;22.20;;;14.07;;
30301;SDS011;17111;52.130;5.028;2023-02-21T07:36:12;24.65;;;15.15;;
30301;SDS011;17111;52.130;5.028;2023-02-21T07:38:39;24.58;;;14.90;;
30301;SDS011;17111;52.130;5.028;2023-02-21T07:41:05;24.35;;;14.15;;
30301;SDS011;17111;52.130;5.028;2023-02-21T07:43:32;26.85;;;14.30;;
30301;SDS011;17111;52.130;5.028;2023-02-21T07:45:59;22.42;;;14.60;;
30301;SDS011;17111;52.130;5.028;2023-02-21T07:48:25;27.77;;;15.02;;
30301;SDS011;17111;52.130;5.028;2023-02-21T07:50:52;26.70;;;16.30;;
30301;SDS011;17111;52.130;5.028;2023-02-21T07:53:19;27.48;;;15.07;;
30301;SDS011;17111;52.130;5.028;2023-02-21T07:55:45;30.40;;;16.42;;
30301;SDS011;17111;52.130;5.028;2023-02-21T07:58:12;27.10;;;15.93;;
30301;SDS011;17111;52.130;5.028;2023-02-21T08:00:39;29.88;;;16.77;;
30301;SDS011;17111;52.130;5.028;2023-02-21T08:03:06;30.02;;;18.27;;
30301;SDS011;17111;52.130;5.028;2023-02-21T08:05:33;40.78;;;24.33;;
30301;SDS011;17111;52.130;5.028;2023-02-21T08:07:59;54.63;;;29.02;;
30301;SDS011;17111;52.130;5.028;2023-02-21T08:10:26;48.33;;;27.70;;
30301;SDS011;17111;52.130;5.028;2023-02-21T08:12:53;47.33;;;27.23;;
30301;SDS011;17111;52.130;5.028;2023-02-21T08:15:20;65.50;;;27.20;;
30301;SDS011;17111;52.130;5.028;2023-02-21T08:17:48;47.58;;;26.63;;
30301;SDS011;17111;52.130;5.028;2023-02-21T08:20:15;58.67;;;28.83;;
30301;SDS011;17111;52.130;5.028;2023-02-21T08:22:42;56.70;;;24.20;;
30301;SDS011;17111;52.130;5.028;2023-02-21T08:25:10;65.13;;;30.00;;
30301;SDS011;17111;52.130;5.028;2023-02-21T08:27:38;59.95;;;28.23;;
30301;SDS011;17111;52.130;5.028;2023-02-21T08:30:09;56.67;;;27.95;;
30301;SDS011;17111;52.130;5.028;2023-02-21T08:32:40;57.78;;;26.63;;
30301;SDS011;17111;52.130;5.028;2023-02-21T08:35:07;66.65;;;27.77;;
30301;SDS011;17111;52.130;5.028;2023-02-21T08:37:33;56.78;;;26.15;;
30301;SDS011;17111;52.130;5.028;2023-02-21T08:40:02;60.03;;;27.48;;
30301;SDS011;17111;52.130;5.028;2023-02-21T08:42:29;52.00;;;25.42;;
30301;SDS011;17111;52.130;5.028;2023-02-21T08:44:55;47.60;;;25.90;;
30301;SDS011;17111;52.130;5.028;2023-02-21T08:47:22;50.58;;;25.75;;
30301;SDS011;17111;52.130;5.028;2023-02-21T08:49:49;55.10;;;24.88;;
30301;SDS011;17111;52.130;5.028;2023-02-21T08:52:16;47.95;;;23.98;;
30301;SDS011;17111;52.130;5.028;2023-02-21T08:54:44;48.63;;;24.30;;
30301;SDS011;17111;52.130;5.028;2023-02-21T08:57:11;45.72;;;24.65;;
30301;SDS011;17111;52.130;5.028;2023-02-21T08:59:41;47.38;;;23.33;;
30301;SDS011;17111;52.130;5.028;2023-02-21T09:02:16;48.90;;;24.05;;
30301;SDS011;17111;52.130;5.028;2023-02-21T09:04:48;41.90;;;22.50;;
30301;SDS011;17111;52.130;5.028;2023-02-21T09:07:15;41.38;;;22.13;;
30301;SDS011;17111;52.130;5.028;2023-02-21T09:09:42;39.90;;;22.27;;
30301;SDS011;17111;52.130;5.028;2023-02-21T09:12:09;40.17;;;21.55;;
30301;SDS011;17111;52.130;5.028;2023-02-21T09:14:36;44.95;;;22.65;;
30301;SDS011;17111;52.130;5.028;2023-02-21T09:17:05;39.40;;;21.05;;
30301;SDS011;17111;52.130;5.028;2023-02-21T09:19:34;43.63;;;22.38;;
30301;SDS011;17111;52.130;5.028;2023-02-21T09:22:01;42.13;;;21.33;;
30301;SDS011;17111;52.130;5.028;2023-02-21T09:24:29;38.22;;;20.20;;
30301;SDS011;17111;52.130;5.028;2023-02-21T09:26:57;38.83;;;19.50;;
30301;SDS011;17111;52.130;5.028;2023-02-21T09:29:25;36.00;;;19.80;;
30301;SDS011;17111;52.130;5.028;2023-02-21T09:32:02;32.45;;;19.27;;
30301;SDS011;17111;52.130;5.028;2023-02-21T09:34:29;35.70;;;19.45;;
30301;SDS011;17111;52.130;5.028;2023-02-21T09:36:56;36.40;;;19.15;;
30301;SDS011;17111;52.130;5.028;2023-02-21T09:39:23;37.70;;;19.05;;
30301;SDS011;17111;52.130;5.028;2023-02-21T09:41:50;41.03;;;18.10;;
30301;SDS011;17111;52.130;5.028;2023-02-21T09:44:22;35.33;;;19.58;;
30301;SDS011;17111;52.130;5.028;2023-02-21T09:47:02;34.80;;;18.67;;
30301;SDS011;17111;52.130;5.028;2023-02-21T09:49:40;34.70;;;18.17;;
30301;SDS011;17111;52.130;5.028;2023-02-21T09:52:21;31.27;;;17.20;;
30301;SDS011;17111;52.130;5.028;2023-02-21T09:54:55;35.22;;;19.30;;
30301;SDS011;17111;52.130;5.028;2023-02-21T09:57:25;27.95;;;17.58;;
30301;SDS011;17111;52.130;5.028;2023-02-21T09:59:51;32.30;;;18.60;;
30301;SDS011;17111;52.130;5.028;2023-02-21T10:08:07;28.92;;;16.95;;
30301;SDS011;17111;52.130;5.028;2023-02-21T10:10:43;32.10;;;17.75;;
30301;SDS011;17111;52.130;5.028;2023-02-21T10:16:31;29.92;;;16.90;;
30301;SDS011;17111;52.130;5.028;2023-02-21T10:19:10;29.02;;;16.73;;
30301;SDS011;17111;52.130;5.028;2023-02-21T10:21:40;29.80;;;17.13;;
30301;SDS011;17111;52.130;5.028;2023-02-21T10:24:13;29.90;;;16.80;;
30301;SDS011;17111;52.130;5.028;2023-02-21T10:26:43;28.80;;;15.90;;
30301;SDS011;17111;52.130;5.028;2023-02-21T10:29:16;26.15;;;15.35;;
30301;SDS011;17111;52.130;5.028;2023-02-21T10:31:56;30.33;;;17.00;;
30301;SDS011;17111;52.130;5.028;2023-02-21T10:34:28;25.25;;;15.20;;
30301;SDS011;17111;52.130;5.028;2023-02-21T10:36:59;28.10;;;16.95;;
30301;SDS011;17111;52.130;5.028;2023-02-21T10:39:33;27.25;;;16.70;;
30301;SDS011;17111;52.130;5.028;2023-02-21T10:42:04;27.57;;;15.83;;
30301;SDS011;17111;52.130;5.028;2023-02-21T10:44:31;27.35;;;15.90;;
30301;SDS011;17111;52.130;5.028;2023-02-21T10:47:01;28.58;;;15.93;;
30301;SDS011;17111;52.130;5.028;2023-02-21T10:49:45;25.45;;;14.80;;
30301;SDS011;17111;52.130;5.028;2023-02-21T10:52:26;27.27;;;15.82;;
30301;SDS011;17111;52.130;5.028;2023-02-21T10:55:00;24.73;;;14.98;;
30301;SDS011;17111;52.130;5.028;2023-02-21T10:57:28;28.75;;;16.15;;
30301;SDS011;17111;52.130;5.028;2023-02-21T10:59:57;28.77;;;16.55;;
30301;SDS011;17111;52.130;5.028;2023-02-21T11:02:34;25.45;;;16.13;;
30301;SDS011;17111;52.130;5.028;2023-02-21T11:05:07;26.33;;;16.45;;
30301;SDS011;17111;52.130;5.028;2023-02-21T11:10:42;27.92;;;15.43;;
30301;SDS011;17111;52.130;5.028;2023-02-21T11:13:13;25.75;;;15.05;;
30301;SDS011;17111;52.130;5.028;2023-02-21T11:15:42;24.67;;;15.07;;
30301;SDS011;17111;52.130;5.028;2023-02-21T11:18:12;32.90;;;16.90;;
30301;SDS011;17111;52.130;5.028;2023-02-21T11:20:42;26.40;;;15.05;;
30301;SDS011;17111;52.130;5.028;2023-02-21T11:26:12;29.85;;;16.30;;
30301;SDS011;17111;52.130;5.028;2023-02-21T11:28:38;25.13;;;14.48;;
30301;SDS011;17111;52.130;5.028;2023-02-21T11:33:49;29.63;;;16.95;;
30301;SDS011;17111;52.130;5.028;2023-02-21T11:36:25;31.48;;;16.67;;
30301;SDS011;17111;52.130;5.028;2023-02-21T11:38:58;29.43;;;17.37;;
30301;SDS011;17111;52.130;5.028;2023-02-21T11:47:13;28.02;;;16.55;;
30301;SDS011;17111;52.130;5.028;2023-02-21T11:49:48;28.17;;;14.63;;
30301;SDS011;17111;52.130;5.028;2023-02-21T11:52:23;25.45;;;15.18;;
30301;SDS011;17111;52.130;5.028;2023-02-21T11:54:54;25.42;;;14.95;;
30301;SDS011;17111;52.130;5.028;2023-02-21T12:00:11;24.88;;;15.13;;
30301;SDS011;17111;52.130;5.028;2023-02-21T12:08:09;26.10;;;14.40;;
30301;SDS011;17111;52.130;5.028;2023-02-21T12:21:58;24.13;;;13.98;;
30301;SDS011;17111;52.130;5.028;2023-02-21T12:27:51;23.15;;;13.48;;
30301;SDS011;17111;52.130;5.028;2023-02-21T12:37:46;23.30;;;13.43;;
30301;SDS011;17111;52.130;5.028;2023-02-21T12:46:15;21.08;;;13.13;;
30301;SDS011;17111;52.130;5.028;2023-02-21T12:48:59;22.35;;;13.68;;
30301;SDS011;17111;52.130;5.028;2023-02-21T12:51:30;21.77;;;13.43;;
30301;SDS011;17111;52.130;5.028;2023-02-21T12:54:12;21.02;;;13.00;;
30301;SDS011;17111;52.130;5.028;2023-02-21T12:56:49;21.20;;;13.73;;
30301;SDS011;17111;52.130;5.028;2023-02-21T12:59:24;20.15;;;13.18;;
30301;SDS011;17111;52.130;5.028;2023-02-21T13:02:00;17.75;;;12.38;;
30301;SDS011;17111;52.130;5.028;2023-02-21T13:04:45;20.75;;;12.80;;
30301;SDS011;17111;52.130;5.028;2023-02-21T13:07:34;21.50;;;13.13;;
30301;SDS011;17111;52.130;5.028;2023-02-21T13:10:17;20.80;;;12.77;;
30301;SDS011;17111;52.130;5.028;2023-02-21T13:15:18;19.77;;;12.50;;
30301;SDS011;17111;52.130;5.028;2023-02-21T13:17:59;21.45;;;12.50;;
30301;SDS011;17111;52.130;5.028;2023-02-21T13:20:42;18.92;;;12.50;;
30301;SDS011;17111;52.130;5.028;2023-02-21T13:23:13;18.75;;;12.13;;
30301;SDS011;17111;52.130;5.028;2023-02-21T13:28:27;18.70;;;12.85;;
30301;SDS011;17111;52.130;5.028;2023-02-21T13:30:59;20.67;;;12.48;;
30301;SDS011;17111;52.130;5.028;2023-02-21T13:33:37;19.08;;;12.15;;
30301;SDS011;17111;52.130;5.028;2023-02-21T13:38:55;18.40;;;11.90;;
30301;SDS011;17111;52.130;5.028;2023-02-21T13:41:24;17.15;;;11.65;;
30301;SDS011;17111;52.130;5.028;2023-02-21T13:43:53;16.63;;;11.75;;
30301;SDS011;17111;52.130;5.028;2023-02-21T13:47:06;17.00;;;10.98;;
30301;SDS011;17111;52.130;5.028;2023-02-21T13:57:49;18.13;;;11.25;;
30301;SDS011;17111;52.130;5.028;2023-02-21T14:02:59;17.00;;;11.32;;
30301;SDS011;17111;52.130;5.028;2023-02-21T14:08:13;14.90;;;10.07;;
30301;SDS011;17111;52.130;5.028;2023-02-21T14:11:13;15.45;;;10.10;;
30301;SDS011;17111;52.130;5.028;2023-02-21T14:16:24;16.45;;;10.40;;
30301;SDS011;17111;52.130;5.028;2023-02-21T14:18:55;15.27;;;10.00;;
30301;SDS011;17111;52.130;5.028;2023-02-21T14:27:00;15.25;;;10.45;;
30301;SDS011;17111;52.130;5.028;2023-02-21T14:29:37;12.52;;;9.20;;
30301;SDS011;17111;52.130;5.028;2023-02-21T14:47:56;12.18;;;8.60;;
30301;SDS011;17111;52.130;5.028;2023-02-21T15:07:49;9.77;;;7.47;;
30301;SDS011;17111;52.130;5.028;2023-02-21T15:12:59;11.65;;;8.02;;
30301;SDS011;17111;52.130;5.028;2023-02-21T15:15:29;10.38;;;7.30;;
30301;SDS011;17111;52.130;5.028;2023-02-21T15:20:37;9.25;;;6.68;;
30301;SDS011;17111;52.130;5.028;2023-02-21T15:23:10;12.57;;;7.82;;
30301;SDS011;17111;52.130;5.028;2023-02-21T15:25:40;9.98;;;7.38;;
30301;SDS011;17111;52.130;5.028;2023-02-21T15:28:29;9.40;;;6.72;;
30301;SDS011;17111;52.130;5.028;2023-02-21T15:31:04;8.00;;;5.93;;
30301;SDS011;17111;52.130;5.028;2023-02-21T15:33:34;9.07;;;6.68;;
30301;SDS011;17111;52.130;5.028;2023-02-21T15:38:36;9.35;;;6.55;;
30301;SDS011;17111;52.130;5.028;2023-02-21T15:41:25;10.07;;;6.90;;
30301;SDS011;17111;52.130;5.028;2023-02-21T15:46:26;9.93;;;6.72;;
30301;SDS011;17111;52.130;5.028;2023-02-21T15:49:00;11.18;;;6.97;;
30301;SDS011;17111;52.130;5.028;2023-02-21T15:51:29;10.43;;;7.15;;
30301;SDS011;17111;52.130;5.028;2023-02-21T15:54:06;12.02;;;8.00;;
30301;SDS011;17111;52.130;5.028;2023-02-21T15:56:42;10.63;;;7.38;;
30301;SDS011;17111;52.130;5.028;2023-02-21T15:59:23;11.25;;;8.38;;
30301;SDS011;17111;52.130;5.028;2023-02-21T16:04:37;14.73;;;9.20;;
30301;SDS011;17111;52.130;5.028;2023-02-21T16:07:06;16.13;;;9.13;;
30301;SDS011;17111;52.130;5.028;2023-02-21T16:09:44;16.63;;;10.20;;
30301;SDS011;17111;52.130;5.028;2023-02-21T16:17:31;19.38;;;11.23;;
30301;SDS011;17111;52.130;5.028;2023-02-21T16:28:38;18.27;;;11.85;;
30301;SDS011;17111;52.130;5.028;2023-02-21T16:31:06;20.50;;;12.15;;
30301;SDS011;17111;52.130;5.028;2023-02-21T16:33:35;17.17;;;11.05;;
30301;SDS011;17111;52.130;5.028;2023-02-21T16:36:09;19.77;;;12.02;;
30301;SDS011;17111;52.130;5.028;2023-02-21T16:38:45;19.35;;;11.85;;
30301;SDS011;17111;52.130;5.028;2023-02-21T16:41:12;16.88;;;10.88;;
30301;SDS011;17111;52.130;5.028;2023-02-21T16:43:41;18.38;;;11.15;;
30301;SDS011;17111;52.130;5.028;2023-02-21T16:46:08;19.30;;;11.65;;
30301;SDS011;17111;52.130;5.028;2023-02-21T16:48:34;18.40;;;11.90;;
30301;SDS011;17111;52.130;5.028;2023-02-21T16:51:03;19.38;;;12.70;;
30301;SDS011;17111;52.130;5.028;2023-02-21T16:53:32;20.33;;;12.95;;
30301;SDS011;17111;52.130;5.028;2023-02-21T16:55:59;19.63;;;12.45;;
30301;SDS011;17111;52.130;5.028;2023-02-21T16:58:31;19.63;;;12.52;;
30301;SDS011;17111;52.130;5.028;2023-02-21T17:01:00;20.27;;;12.77;;
30301;SDS011;17111;52.130;5.028;2023-02-21T17:03:30;21.13;;;13.68;;
30301;SDS011;17111;52.130;5.028;2023-02-21T17:05:57;21.23;;;13.13;;
30301;SDS011;17111;52.130;5.028;2023-02-21T17:08:26;22.60;;;13.98;;
30301;SDS011;17111;52.130;5.028;2023-02-21T17:10:54;23.17;;;14.02;;
30301;SDS011;17111;52.130;5.028;2023-02-21T17:13:21;23.88;;;14.75;;
30301;SDS011;17111;52.130;5.028;2023-02-21T17:15:48;24.20;;;15.48;;
30301;SDS011;17111;52.130;5.028;2023-02-21T17:18:16;25.00;;;15.48;;
30301;SDS011;17111;52.130;5.028;2023-02-21T17:20:43;25.60;;;15.82;;
30301;SDS011;17111;52.130;5.028;2023-02-21T17:23:10;22.35;;;14.15;;
30301;SDS011;17111;52.130;5.028;2023-02-21T17:25:36;40.22;;;23.63;;
30301;SDS011;17111;52.130;5.028;2023-02-21T17:28:03;48.65;;;29.38;;
30301;SDS011;17111;52.130;5.028;2023-02-21T17:30:29;43.35;;;25.70;;
30301;SDS011;17111;52.130;5.028;2023-02-21T17:32:56;44.33;;;26.88;;
30301;SDS011;17111;52.130;5.028;2023-02-21T17:35:23;46.05;;;27.67;;
30301;SDS011;17111;52.130;5.028;2023-02-21T17:37:50;44.20;;;26.45;;
30301;SDS011;17111;52.130;5.028;2023-02-21T17:40:17;46.05;;;26.98;;
30301;SDS011;17111;52.130;5.028;2023-02-21T17:42:45;50.53;;;29.05;;
30301;SDS011;17111;52.130;5.028;2023-02-21T17:45:15;46.03;;;28.13;;
30301;SDS011;17111;52.130;5.028;2023-02-21T17:47:43;40.85;;;26.02;;
30301;SDS011;17111;52.130;5.028;2023-02-21T17:50:10;45.00;;;26.85;;
30301;SDS011;17111;52.130;5.028;2023-02-21T17:52:39;47.78;;;28.17;;
30301;SDS011;17111;52.130;5.028;2023-02-21T17:55:06;43.80;;;27.02;;
30301;SDS011;17111;52.130;5.028;2023-02-21T17:57:34;45.20;;;27.00;;
30301;SDS011;17111;52.130;5.028;2023-02-21T18:00:08;49.97;;;28.00;;
30301;SDS011;17111;52.130;5.028;2023-02-21T18:02:39;43.70;;;26.02;;
30301;SDS011;17111;52.130;5.028;2023-02-21T18:05:05;45.38;;;25.67;;
30301;SDS011;17111;52.130;5.028;2023-02-21T18:07:33;41.63;;;24.63;;